Time;durP1;ratioP1;P1;durP2;ratioP2;P2;SDS_P1;SDS_P2;PMS_P1;PMS_P2;Temp;Humidity;BMP_temperature;BMP_pressure;BME280_temperature;BME280_humidity;BME280_pressure;Samples;Min_cycle;Max_cycle;Signal;HPM_P1;HPM_P2
2021/12/19 00:00:57;;;;;;;15.48;5.10;;;;;;;;;;5070774;28;20094;-81
2021/12/19 00:08:50;;;;;;;18.20;5.55;;;;;;;;;;5056216;28;20059;-75
2021/12/19 00:11:23;;;;;;;16.90;5.25;;;;;;;;;;5053303;28;20044;-74
2021/12/19 00:13:50;;;;;;;17.27;5.18;;;;;;;;;;5070421;28;20053;-74
2021/12/19 00:16:17;;;;;;;17.83;5.20;;;;;;;;;;5069910;28;20097;-74
2021/12/19 00:18:44;;;;;;;17.58;5.10;;;;;;;;;;5071438;28;20044;-78
2021/12/19 00:21:15;;;;;;;21.35;5.55;;;;;;;;;;5070115;28;20519;-81
2021/12/19 00:23:41;;;;;;;19.67;5.55;;;;;;;;;;5070443;28;20503;-74
2021/12/19 00:26:07;;;;;;;17.65;5.63;;;;;;;;;;5070824;28;20407;-82
2021/12/19 00:28:33;;;;;;;21.42;5.82;;;;;;;;;;5052709;28;20041;-82
2021/12/19 00:31:00;;;;;;;20.92;5.68;;;;;;;;;;5070037;28;20037;-81
2021/12/19 00:33:26;;;;;;;19.80;5.85;;;;;;;;;;5069962;28;20050;-74
2021/12/19 00:35:52;;;;;;;18.77;5.75;;;;;;;;;;5053038;28;20032;-74
2021/12/19 00:38:18;;;;;;;18.35;5.60;;;;;;;;;;5052884;28;20392;-74
2021/12/19 00:40:44;;;;;;;18.35;5.63;;;;;;;;;;5071574;28;20041;-80
2021/12/19 00:43:22;;;;;;;18.65;5.30;;;;;;;;;;5053209;28;20052;-80
2021/12/19 00:45:49;;;;;;;18.83;5.45;;;;;;;;;;5070549;28;20056;-81
2021/12/19 00:48:16;;;;;;;23.02;6.45;;;;;;;;;;5070983;28;20036;-74
2021/12/19 00:50:43;;;;;;;15.32;5.20;;;;;;;;;;5069931;28;20044;-75
2021/12/19 00:53:09;;;;;;;16.15;4.85;;;;;;;;;;5070821;28;20040;-81
2021/12/19 00:55:36;;;;;;;16.35;5.05;;;;;;;;;;5069663;28;20102;-75
2021/12/19 00:58:03;;;;;;;19.20;5.70;;;;;;;;;;5070697;28;20059;-75
2021/12/19 01:00:31;;;;;;;17.65;5.45;;;;;;;;;;5069705;28;20588;-81
2021/12/19 01:02:59;;;;;;;14.73;5.25;;;;;;;;;;5069519;28;20051;-75
2021/12/19 01:05:26;;;;;;;13.98;4.90;;;;;;;;;;5069390;28;20088;-75
2021/12/19 01:07:53;;;;;;;20.52;5.07;;;;;;;;;;5069412;28;20095;-75
2021/12/19 01:10:19;;;;;;;16.15;5.30;;;;;;;;;;5052457;28;20047;-81
2021/12/19 01:12:45;;;;;;;14.07;4.82;;;;;;;;;;5052981;28;20044;-81
2021/12/19 01:15:13;;;;;;;13.35;4.97;;;;;;;;;;5068886;28;20044;-81
2021/12/19 01:17:39;;;;;;;11.75;4.57;;;;;;;;;;5053076;28;20562;-74
2021/12/19 01:20:07;;;;;;;13.55;4.63;;;;;;;;;;5052029;28;20047;-81
2021/12/19 01:22:33;;;;;;;15.50;5.28;;;;;;;;;;5070614;28;20412;-81
2021/12/19 01:24:59;;;;;;;18.42;5.50;;;;;;;;;;5070450;28;20047;-81
2021/12/19 01:27:25;;;;;;;14.60;4.43;;;;;;;;;;5052447;28;20041;-81
2021/12/19 01:29:51;;;;;;;18.98;5.32;;;;;;;;;;5068978;28;20036;-75
2021/12/19 01:32:17;;;;;;;17.27;4.70;;;;;;;;;;5068818;28;20075;-80
2021/12/19 01:34:43;;;;;;;14.07;4.43;;;;;;;;;;5068953;28;20089;-80
2021/12/19 01:37:09;;;;;;;10.65;3.83;;;;;;;;;;5068926;28;20496;-81
2021/12/19 01:39:36;;;;;;;11.90;3.90;;;;;;;;;;5052125;28;20123;-80
2021/12/19 01:42:02;;;;;;;9.68;3.78;;;;;;;;;;5069966;28;20102;-80
2021/12/19 01:44:28;;;;;;;7.90;2.65;;;;;;;;;;5070282;28;20040;-75
2021/12/19 01:46:54;;;;;;;6.32;2.58;;;;;;;;;;5052265;28;20044;-81
2021/12/19 01:49:21;;;;;;;6.95;2.58;;;;;;;;;;5051743;28;20178;-81
2021/12/19 01:51:48;;;;;;;4.97;1.90;;;;;;;;;;5068713;28;20475;-81
2021/12/19 01:54:14;;;;;;;5.65;1.88;;;;;;;;;;5068126;28;20134;-82
2021/12/19 01:56:41;;;;;;;4.97;1.67;;;;;;;;;;5068892;28;20051;-74
2021/12/19 01:59:10;;;;;;;5.13;1.92;;;;;;;;;;5051896;28;20072;-81
2021/12/19 02:01:50;;;;;;;5.70;1.95;;;;;;;;;;5068821;28;20048;-75
2021/12/19 02:04:17;;;;;;;5.78;1.85;;;;;;;;;;5069672;28;20037;-75
2021/12/19 02:06:43;;;;;;;5.22;1.98;;;;;;;;;;5068996;28;20040;-74
2021/12/19 02:09:10;;;;;;;5.72;1.80;;;;;;;;;;5068316;28;20040;-75
2021/12/19 02:11:37;;;;;;;5.45;1.92;;;;;;;;;;5069944;28;20045;-75
2021/12/19 02:14:04;;;;;;;6.32;2.15;;;;;;;;;;5068701;28;20442;-75
2021/12/19 02:16:30;;;;;;;7.25;1.88;;;;;;;;;;5062912;28;20102;-75
2021/12/19 02:18:57;;;;;;;8.05;2.10;;;;;;;;;;5048449;28;20059;-75
2021/12/19 02:21:24;;;;;;;6.53;2.00;;;;;;;;;;5048321;28;20484;-75
2021/12/19 02:23:51;;;;;;;5.85;2.08;;;;;;;;;;5048600;28;20049;-75
2021/12/19 02:26:17;;;;;;;8.02;1.90;;;;;;;;;;5048319;28;20045;-75
2021/12/19 02:28:44;;;;;;;4.75;1.88;;;;;;;;;;5048569;28;20120;-75
2021/12/19 02:31:10;;;;;;;6.75;2.00;;;;;;;;;;5062484;28;20514;-75
2021/12/19 02:33:41;;;;;;;6.47;1.80;;;;;;;;;;5051932;28;20125;-75
2021/12/19 02:39:19;;;;;;;4.68;1.60;;;;;;;;;;5052848;28;20513;-75
2021/12/19 02:49:41;;;;;;;6.35;2.10;;;;;;;;;;5068489;28;20404;-75
2021/12/19 02:52:11;;;;;;;7.18;2.00;;;;;;;;;;5067834;28;20052;-75
2021/12/19 02:54:37;;;;;;;4.07;1.40;;;;;;;;;;5068392;28;20579;-75
2021/12/19 02:57:04;;;;;;;4.15;1.25;;;;;;;;;;5069292;28;20045;-75
2021/12/19 02:59:32;;;;;;;3.65;1.00;;;;;;;;;;5068557;28;20047;-75
2021/12/19 03:01:58;;;;;;;4.53;1.38;;;;;;;;;;5065782;28;20051;-74
2021/12/19 03:04:24;;;;;;;4.50;1.30;;;;;;;;;;5067440;28;20042;-80
2021/12/19 03:06:50;;;;;;;5.07;1.60;;;;;;;;;;5066866;28;20448;-81
2021/12/19 03:09:33;;;;;;;4.38;1.10;;;;;;;;;;5067960;28;20055;-82
2021/12/19 03:20:04;;;;;;;4.97;1.40;;;;;;;;;;5067794;28;20044;-75
2021/12/19 03:22:30;;;;;;;6.18;1.50;;;;;;;;;;5067487;28;20091;-75
2021/12/19 03:24:56;;;;;;;4.38;1.38;;;;;;;;;;5067856;28;20102;-75
2021/12/19 03:27:22;;;;;;;4.32;1.20;;;;;;;;;;5068787;28;20071;-75
2021/12/19 03:29:48;;;;;;;2.88;1.17;;;;;;;;;;5071024;28;20492;-75
2021/12/19 03:32:14;;;;;;;4.40;1.30;;;;;;;;;;5071963;28;20057;-74
2021/12/19 03:34:40;;;;;;;3.35;0.98;;;;;;;;;;5071418;28;20048;-76
2021/12/19 03:37:07;;;;;;;4.63;1.30;;;;;;;;;;5054395;28;20052;-75
2021/12/19 03:39:38;;;;;;;3.60;1.13;;;;;;;;;;5072563;28;20040;-75
2021/12/19 03:42:05;;;;;;;4.43;1.20;;;;;;;;;;5055467;28;20059;-75
2021/12/19 03:44:31;;;;;;;2.67;0.95;;;;;;;;;;5071262;28;20049;-75
2021/12/19 03:46:58;;;;;;;3.47;1.23;;;;;;;;;;5054879;28;20128;-75
2021/12/19 03:49:25;;;;;;;3.55;1.20;;;;;;;;;;5054974;28;20089;-75
2021/12/19 03:51:51;;;;;;;3.67;1.50;;;;;;;;;;5071136;28;20048;-75
2021/12/19 03:54:17;;;;;;;3.42;1.27;;;;;;;;;;5072088;28;20480;-75
2021/12/19 03:56:43;;;;;;;3.30;0.90;;;;;;;;;;5071126;28;20041;-75
2021/12/19 03:59:09;;;;;;;3.72;0.90;;;;;;;;;;5070791;28;20033;-75
2021/12/19 04:01:35;;;;;;;7.35;1.08;;;;;;;;;;5054324;28;20073;-75
2021/12/19 04:04:02;;;;;;;3.95;1.00;;;;;;;;;;5071049;28;20487;-75
2021/12/19 04:06:28;;;;;;;4.20;1.10;;;;;;;;;;5054457;28;20599;-75
2021/12/19 04:08:56;;;;;;;3.67;1.00;;;;;;;;;;5072143;28;20139;-75
2021/12/19 04:11:24;;;;;;;4.47;1.25;;;;;;;;;;5053583;28;20037;-75
2021/12/19 04:13:51;;;;;;;3.22;0.90;;;;;;;;;;5070458;28;20054;-81
2021/12/19 04:16:17;;;;;;;2.63;1.05;;;;;;;;;;5070867;28;20040;-81
2021/12/19 04:18:43;;;;;;;3.63;1.08;;;;;;;;;;5072122;28;20098;-81
2021/12/19 04:21:09;;;;;;;1.65;0.57;;;;;;;;;;5070624;28;20036;-81
2021/12/19 04:23:35;;;;;;;3.13;0.70;;;;;;;;;;5070425;28;20044;-81
2021/12/19 04:26:01;;;;;;;1.92;0.60;;;;;;;;;;5070419;28;20067;-81
2021/12/19 04:28:27;;;;;;;2.17;0.75;;;;;;;;;;5070727;28;20492;-81
2021/12/19 04:30:53;;;;;;;1.67;0.70;;;;;;;;;;5070612;28;20103;-81
2021/12/19 04:33:22;;;;;;;2.05;0.70;;;;;;;;;;5069905;28;20066;-82
2021/12/19 04:35:48;;;;;;;2.50;1.00;;;;;;;;;;5070505;28;20053;-82
2021/12/19 04:54:23;;;;;;;4.05;1.13;;;;;;;;;;5069776;28;20052;-75
2021/12/19 05:15:23;;;;;;;7.43;2.42;;;;;;;;;;5070478;28;20044;-75
2021/12/19 05:17:50;;;;;;;10.15;2.60;;;;;;;;;;5052794;28;20071;-75
2021/12/19 05:20:21;;;;;;;6.82;2.50;;;;;;;;;;5052555;28;20036;-75
2021/12/19 05:22:57;;;;;;;5.68;2.13;;;;;;;;;;5069770;28;20577;-74
2021/12/19 05:25:23;;;;;;;;;;;;;;;;;;5052815;28;20052;-74
2021/12/19 05:27:53;;;;;;;7.80;2.63;;;;;;;;;;5069258;28;20330;-75
2021/12/19 05:30:20;;;;;;;7.43;2.58;;;;;;;;;;5068813;28;20040;-74
2021/12/19 05:32:47;;;;;;;9.25;2.72;;;;;;;;;;5069513;28;20131;-74
2021/12/19 05:35:16;;;;;;;7.82;2.65;;;;;;;;;;5069205;28;20059;-75
2021/12/19 05:45:56;;;;;;;9.80;3.58;;;;;;;;;;5068203;28;20138;-75
2021/12/19 05:48:22;;;;;;;10.98;4.20;;;;;;;;;;5068559;28;20044;-75
2021/12/19 05:50:49;;;;;;;10.88;4.03;;;;;;;;;;5067555;28;20049;-75
2021/12/19 05:53:15;;;;;;;11.02;3.63;;;;;;;;;;5068348;28;20442;-74
2021/12/19 05:55:41;;;;;;;14.23;4.72;;;;;;;;;;5069280;28;20118;-75
2021/12/19 05:58:08;;;;;;;12.75;3.88;;;;;;;;;;5068456;28;20392;-75
2021/12/19 06:00:35;;;;;;;10.85;4.35;;;;;;;;;;5068741;28;20540;-75
2021/12/19 06:03:02;;;;;;;15.48;4.13;;;;;;;;;;5068507;28;20083;-75
2021/12/19 06:05:29;;;;;;;10.93;3.78;;;;;;;;;;5051939;28;20453;-75
2021/12/19 06:07:55;;;;;;;11.43;4.13;;;;;;;;;;5051544;28;20044;-75
2021/12/19 06:10:22;;;;;;;8.90;3.97;;;;;;;;;;5067899;28;20572;-75
2021/12/19 06:12:49;;;;;;;11.20;4.00;;;;;;;;;;5051557;28;20047;-75
2021/12/19 06:15:15;;;;;;;13.07;4.35;;;;;;;;;;5051211;28;20037;-75
2021/12/19 06:17:42;;;;;;;17.10;5.35;;;;;;;;;;5068316;28;20055;-75
2021/12/19 06:20:10;;;;;;;15.23;6.00;;;;;;;;;;5051434;28;20044;-75
2021/12/19 06:22:36;;;;;;;12.63;5.60;;;;;;;;;;5068494;28;20082;-75
2021/12/19 06:25:03;;;;;;;17.52;5.88;;;;;;;;;;5067907;28;20048;-75
2021/12/19 06:27:29;;;;;;;19.10;6.10;;;;;;;;;;5069585;28;20101;-75
2021/12/19 06:29:55;;;;;;;18.65;7.00;;;;;;;;;;5069348;28;20127;-75
2021/12/19 06:32:21;;;;;;;17.20;6.88;;;;;;;;;;5034784;28;20396;-75
2021/12/19 06:34:47;;;;;;;21.23;6.53;;;;;;;;;;5068117;28;20053;-75
2021/12/19 06:37:13;;;;;;;22.42;7.30;;;;;;;;;;5067647;28;20422;-75
2021/12/19 06:39:40;;;;;;;23.63;7.28;;;;;;;;;;5067917;28;20040;-75
2021/12/19 06:42:07;;;;;;;21.23;7.47;;;;;;;;;;5067413;28;20049;-75
2021/12/19 06:44:34;;;;;;;21.15;7.40;;;;;;;;;;5051721;28;20047;-75
2021/12/19 06:47:00;;;;;;;24.63;8.55;;;;;;;;;;5035180;28;20044;-75
2021/12/19 06:49:26;;;;;;;26.52;8.63;;;;;;;;;;5068012;28;20083;-75
2021/12/19 06:51:53;;;;;;;25.65;8.63;;;;;;;;;;5067472;28;20488;-74
2021/12/19 06:54:19;;;;;;;22.95;7.40;;;;;;;;;;5067116;28;20532;-75
2021/12/19 06:56:45;;;;;;;27.55;8.55;;;;;;;;;;5067660;28;20076;-74
2021/12/19 06:59:11;;;;;;;21.05;8.30;;;;;;;;;;5067744;28;20392;-74
2021/12/19 07:01:37;;;;;;;20.17;7.78;;;;;;;;;;5069040;28;20075;-74
2021/12/19 07:04:03;;;;;;;27.00;7.47;;;;;;;;;;5054834;28;20055;-74
2021/12/19 07:06:30;;;;;;;23.92;7.38;;;;;;;;;;5071826;28;20515;-74
2021/12/19 07:08:56;;;;;;;17.50;6.68;;;;;;;;;;5071701;28;20144;-74
2021/12/19 07:11:22;;;;;;;18.20;6.68;;;;;;;;;;5070761;28;20044;-74
2021/12/19 07:13:48;;;;;;;23.42;5.38;;;;;;;;;;5071426;28;20272;-74
2021/12/19 07:16:14;;;;;;;15.68;4.60;;;;;;;;;;5054822;28;20129;-82
2021/12/19 07:18:42;;;;;;;13.40;4.38;;;;;;;;;;5071623;28;20067;-74
2021/12/19 07:21:09;;;;;;;13.05;3.67;;;;;;;;;;5072369;28;20049;-74
2021/12/19 07:23:35;;;;;;;12.73;3.60;;;;;;;;;;5071343;28;20171;-75
2021/12/19 07:26:01;;;;;;;15.90;3.60;;;;;;;;;;5071160;28;20048;-82
2021/12/19 07:28:28;;;;;;;13.85;4.03;;;;;;;;;;5071499;28;20047;-81
2021/12/19 07:30:55;;;;;;;14.25;4.10;;;;;;;;;;5071454;28;20559;-83
2021/12/19 07:33:22;;;;;;;14.00;4.20;;;;;;;;;;5054953;28;20394;-81
2021/12/19 07:35:49;;;;;;;19.85;4.82;;;;;;;;;;5070674;28;20047;-82
2021/12/19 07:38:26;;;;;;;14.60;4.75;;;;;;;;;;5070963;28;20051;-82
2021/12/19 07:40:54;;;;;;;12.07;4.63;;;;;;;;;;5071490;28;20143;-82
2021/12/19 07:43:21;;;;;;;18.77;5.45;;;;;;;;;;5071224;28;20124;-82
2021/12/19 07:45:47;;;;;;;16.58;5.93;;;;;;;;;;5054685;28;20048;-83
2021/12/19 07:48:13;;;;;;;19.25;5.70;;;;;;;;;;5071227;28;20450;-82
2021/12/19 07:50:39;;;;;;;16.05;5.55;;;;;;;;;;5054535;28;20044;-83
2021/12/19 07:53:07;;;;;;;22.98;6.30;;;;;;;;;;5053403;28;20123;-83
2021/12/19 07:55:33;;;;;;;15.77;6.00;;;;;;;;;;5070745;28;20379;-83
2021/12/19 07:57:59;;;;;;;18.10;5.65;;;;;;;;;;5071355;28;20042;-83
2021/12/19 08:00:25;;;;;;;14.80;5.43;;;;;;;;;;5071921;28;20086;-82
2021/12/19 08:02:51;;;;;;;18.92;5.53;;;;;;;;;;5070541;28;20055;-75
2021/12/19 08:05:19;;;;;;;15.43;4.85;;;;;;;;;;5053562;28;20589;-75
2021/12/19 08:07:48;;;;;;;18.00;5.32;;;;;;;;;;5070340;28;20044;-76
2021/12/19 08:11:39;;;;;;;11.27;4.72;;;;;;;;;;5070469;28;20052;-75
2021/12/19 08:13:01;;;;;;;13.65;3.72;;;;;;;;;;5069469;28;20044;-83
2021/12/19 08:15:27;;;;;;;12.30;4.07;;;;;;;;;;5070861;28;20427;-76
2021/12/19 08:17:53;;;;;;;11.23;3.63;;;;;;;;;;5070517;28;20515;-76
2021/12/19 08:20:19;;;;;;;12.50;3.50;;;;;;;;;;5069872;28;20072;-76
2021/12/19 08:22:47;;;;;;;8.73;3.60;;;;;;;;;;5070247;28;20553;-83
2021/12/19 08:25:14;;;;;;;11.48;3.63;;;;;;;;;;5071351;28;20050;-83
2021/12/19 08:27:40;;;;;;;12.82;3.88;;;;;;;;;;5070271;28;20047;-81
2021/12/19 08:30:08;;;;;;;12.13;3.63;;;;;;;;;;5070121;28;20039;-82
2021/12/19 08:32:34;;;;;;;16.38;4.70;;;;;;;;;;5070045;28;20040;-83
2021/12/19 08:35:00;;;;;;;15.45;4.55;;;;;;;;;;5070303;28;20488;-83
2021/12/19 08:37:26;;;;;;;13.52;4.80;;;;;;;;;;5070393;28;20147;-82
2021/12/19 08:39:53;;;;;;;14.10;4.43;;;;;;;;;;5036873;28;20059;-76
2021/12/19 08:42:19;;;;;;;11.30;3.83;;;;;;;;;;5070147;28;20514;-82
2021/12/19 08:44:45;;;;;;;13.70;4.80;;;;;;;;;;5071233;28;20557;-82
2021/12/19 08:47:11;;;;;;;12.70;3.60;;;;;;;;;;5069869;28;20098;-81
2021/12/19 08:49:39;;;;;;;10.27;3.40;;;;;;;;;;5070289;28;20541;-75
2021/12/19 08:52:06;;;;;;;11.48;3.28;;;;;;;;;;5069370;28;20098;-75
2021/12/19 08:54:32;;;;;;;12.07;3.20;;;;;;;;;;5069706;28;20048;-75
2021/12/19 08:56:58;;;;;;;12.50;3.28;;;;;;;;;;5069822;28;20047;-75
2021/12/19 08:59:26;;;;;;;11.23;3.58;;;;;;;;;;5052824;28;20040;-75
2021/12/19 09:01:53;;;;;;;12.00;4.03;;;;;;;;;;5053334;28;20044;-75
2021/12/19 09:04:19;;;;;;;7.80;3.00;;;;;;;;;;5069890;28;20044;-75
2021/12/19 09:06:45;;;;;;;11.15;2.80;;;;;;;;;;5069859;28;20045;-75
2021/12/19 09:09:11;;;;;;;9.27;3.05;;;;;;;;;;5069256;28;20039;-75
2021/12/19 09:11:38;;;;;;;13.70;3.10;;;;;;;;;;5069704;28;20040;-75
2021/12/19 09:14:04;;;;;;;9.30;3.10;;;;;;;;;;5068764;28;20485;-81
2021/12/19 09:16:30;;;;;;;14.95;4.35;;;;;;;;;;5069389;28;20044;-82
2021/12/19 09:18:56;;;;;;;10.98;3.25;;;;;;;;;;5069188;28;20481;-81
2021/12/19 09:21:22;;;;;;;11.55;3.25;;;;;;;;;;5068996;28;20079;-82
2021/12/19 09:23:48;;;;;;;11.75;4.05;;;;;;;;;;5069161;28;20044;-82
2021/12/19 09:26:15;;;;;;;10.82;3.50;;;;;;;;;;5068844;28;20067;-82
2021/12/19 09:28:41;;;;;;;13.27;3.47;;;;;;;;;;5068998;28;20044;-82
2021/12/19 09:31:07;;;;;;;9.13;3.22;;;;;;;;;;5068801;28;20047;-75
2021/12/19 09:33:33;;;;;;;14.18;3.70;;;;;;;;;;5069116;28;20369;-75
2021/12/19 09:35:59;;;;;;;11.63;3.28;;;;;;;;;;5069374;28;20046;-75
2021/12/19 09:38:26;;;;;;;16.80;3.85;;;;;;;;;;5068784;28;20097;-75
2021/12/19 09:40:59;;;;;;;17.45;3.72;;;;;;;;;;5069120;28;20044;-75
2021/12/19 09:43:41;;;;;;;12.30;3.72;;;;;;;;;;5052264;28;20072;-75
2021/12/19 09:46:15;;;;;;;13.00;3.65;;;;;;;;;;5068706;28;20048;-75
2021/12/19 09:48:43;;;;;;;15.05;3.83;;;;;;;;;;5068944;28;20044;-75
2021/12/19 09:51:09;;;;;;;11.68;3.50;;;;;;;;;;5068985;28;20044;-75
2021/12/19 09:53:37;;;;;;;19.10;4.07;;;;;;;;;;5068832;28;20044;-75
2021/12/19 09:56:04;;;;;;;15.88;3.90;;;;;;;;;;5068521;28;20052;-83
2021/12/19 09:58:32;;;;;;;12.23;3.35;;;;;;;;;;5068823;28;20037;-81
2021/12/19 10:00:58;;;;;;;14.90;3.60;;;;;;;;;;5070048;28;20051;-82
2021/12/19 10:03:24;;;;;;;15.98;3.80;;;;;;;;;;5068775;28;20581;-75
2021/12/19 10:05:50;;;;;;;15.40;3.70;;;;;;;;;;5068561;28;20048;-82
2021/12/19 10:08:24;;;;;;;16.83;3.80;;;;;;;;;;5068503;28;20040;-82
2021/12/19 10:10:59;;;;;;;17.15;3.80;;;;;;;;;;5068767;28;20043;-82
2021/12/19 10:13:36;;;;;;;12.43;3.47;;;;;;;;;;5068370;28;20480;-82
2021/12/19 10:16:23;;;;;;;12.45;3.33;;;;;;;;;;5068740;28;20051;-82
2021/12/19 10:18:50;;;;;;;13.40;3.83;;;;;;;;;;5068895;28;20426;-82
2021/12/19 10:21:19;;;;;;;15.55;3.58;;;;;;;;;;5051951;28;20044;-82
2021/12/19 10:23:45;;;;;;;17.17;3.80;;;;;;;;;;5051737;28;20044;-82
2021/12/19 10:26:11;;;;;;;16.77;3.53;;;;;;;;;;5068620;28;20625;-82
2021/12/19 10:28:57;;;;;;;15.65;3.28;;;;;;;;;;5068313;28;20051;-82
2021/12/19 10:31:25;;;;;;;15.68;3.60;;;;;;;;;;5068432;28;20049;-82
2021/12/19 10:33:51;;;;;;;15.48;3.58;;;;;;;;;;5068332;28;20049;-82
2021/12/19 10:36:18;;;;;;;12.00;3.38;;;;;;;;;;5068424;28;20040;-82
2021/12/19 10:38:44;;;;;;;15.50;3.20;;;;;;;;;;5072475;28;20047;-82
2021/12/19 10:41:17;;;;;;;15.80;3.22;;;;;;;;;;5072151;28;20052;-83
2021/12/19 10:44:04;;;;;;;16.02;3.65;;;;;;;;;;5072330;28;20091;-82
2021/12/19 10:46:32;;;;;;;14.18;3.30;;;;;;;;;;5073689;28;20072;-82
2021/12/19 10:48:58;;;;;;;11.55;3.15;;;;;;;;;;5072476;28;20480;-81
2021/12/19 10:51:25;;;;;;;11.55;3.30;;;;;;;;;;5055508;28;20036;-82
2021/12/19 10:53:52;;;;;;;15.50;3.33;;;;;;;;;;5072966;28;20409;-82
2021/12/19 10:56:21;;;;;;;17.48;3.50;;;;;;;;;;5072118;28;20048;-82
2021/12/19 10:58:53;;;;;;;13.30;2.95;;;;;;;;;;5055302;28;20094;-82
2021/12/19 11:01:20;;;;;;;13.82;3.42;;;;;;;;;;5071772;28;20489;-82
2021/12/19 11:03:46;;;;;;;14.00;3.17;;;;;;;;;;5072018;28;20044;-82
2021/12/19 11:06:15;;;;;;;13.93;3.72;;;;;;;;;;5055110;28;20044;-83
2021/12/19 11:08:42;;;;;;;16.42;3.40;;;;;;;;;;5072399;28;20044;-83
2021/12/19 11:11:08;;;;;;;8.98;3.03;;;;;;;;;;5072172;28;20388;-82
2021/12/19 11:13:35;;;;;;;12.18;2.85;;;;;;;;;;5073183;28;20048;-82
2021/12/19 11:16:01;;;;;;;10.00;3.00;;;;;;;;;;5071673;28;20179;-83
2021/12/19 11:18:27;;;;;;;13.48;2.95;;;;;;;;;;5071614;28;20044;-83
2021/12/19 11:20:53;;;;;;;14.43;3.25;;;;;;;;;;5072057;28;20539;-83
2021/12/19 11:23:19;;;;;;;17.25;3.58;;;;;;;;;;5072094;28;20041;-83
2021/12/19 11:25:46;;;;;;;15.13;3.13;;;;;;;;;;5072929;28;20083;-83
2021/12/19 11:28:12;;;;;;;17.17;3.35;;;;;;;;;;5071070;28;20033;-84
2021/12/19 11:30:39;;;;;;;16.38;3.78;;;;;;;;;;5071556;28;20120;-83
2021/12/19 11:33:20;;;;;;;17.42;3.40;;;;;;;;;;5071043;28;20051;-83
2021/12/19 11:35:48;;;;;;;11.23;3.25;;;;;;;;;;5054658;28;20106;-82
2021/12/19 11:38:17;;;;;;;13.32;3.03;;;;;;;;;;5071363;28;20400;-83
2021/12/19 11:40:44;;;;;;;17.13;3.95;;;;;;;;;;5071362;28;20068;-83
2021/12/19 11:43:11;;;;;;;12.95;3.10;;;;;;;;;;5054731;28;20545;-82
2021/12/19 11:45:56;;;;;;;13.90;3.50;;;;;;;;;;5071022;28;20094;-82
2021/12/19 11:48:30;;;;;;;15.18;4.00;;;;;;;;;;5072401;28;20368;-82
2021/12/19 11:51:00;;;;;;;15.07;3.83;;;;;;;;;;5071160;28;20102;-75
2021/12/19 11:53:31;;;;;;;20.55;3.83;;;;;;;;;;5054062;28;20044;-75
2021/12/19 11:56:08;;;;;;;13.45;3.25;;;;;;;;;;5070833;28;20048;-74
2021/12/19 11:58:49;;;;;;;11.98;3.42;;;;;;;;;;5071019;28;20039;-75
2021/12/19 12:01:21;;;;;;;15.80;3.60;;;;;;;;;;5054497;28;20044;-75
2021/12/19 12:03:52;;;;;;;16.75;3.72;;;;;;;;;;5054309;28;20101;-75
2021/12/19 12:06:20;;;;;;;17.10;3.55;;;;;;;;;;5070855;28;20048;-75
2021/12/19 12:09:06;;;;;;;17.23;3.97;;;;;;;;;;5070941;28;20080;-75
2021/12/19 12:11:33;;;;;;;15.35;4.10;;;;;;;;;;5071601;28;20183;-75
2021/12/19 12:14:18;;;;;;;16.85;3.75;;;;;;;;;;5069910;28;20055;-75
2021/12/19 12:16:57;;;;;;;15.57;3.38;;;;;;;;;;5070405;28;20040;-75
2021/12/19 12:19:51;;;;;;;17.67;4.32;;;;;;;;;;5070579;28;20044;-82
2021/12/19 12:25:04;;;;;;;13.40;3.72;;;;;;;;;;5070582;28;20044;-83
2021/12/19 12:27:38;;;;;;;17.70;2.85;;;;;;;;;;5070519;28;20048;-83
2021/12/19 12:30:10;;;;;;;12.10;3.22;;;;;;;;;;5069809;28;20544;-82
2021/12/19 12:32:36;;;;;;;11.90;2.83;;;;;;;;;;5070166;28;20516;-82
2021/12/19 12:35:03;;;;;;;13.57;3.40;;;;;;;;;;5070613;28;20485;-83
2021/12/19 12:37:29;;;;;;;14.07;4.18;;;;;;;;;;5070263;28;20048;-83
2021/12/19 12:40:27;;;;;;;15.90;4.15;;;;;;;;;;5070544;28;20442;-83
2021/12/19 12:42:56;;;;;;;14.50;3.60;;;;;;;;;;5070033;28;20552;-75
2021/12/19 12:45:22;;;;;;;14.10;3.58;;;;;;;;;;5069643;28;20159;-75
2021/12/19 12:47:52;;;;;;;12.85;3.83;;;;;;;;;;5053164;28;20036;-75
2021/12/19 12:50:18;;;;;;;15.65;3.22;;;;;;;;;;5103265;28;20051;-83
2021/12/19 12:52:44;;;;;;;16.35;4.40;;;;;;;;;;5053341;28;20392;-75
2021/12/19 12:55:13;;;;;;;13.00;2.65;;;;;;;;;;5069433;28;20500;-75
2021/12/19 12:57:41;;;;;;;18.63;3.28;;;;;;;;;;5069609;28;20133;-75
2021/12/19 13:00:07;;;;;;;14.88;2.90;;;;;;;;;;5069147;28;20041;-75
2021/12/19 13:02:43;;;;;;;14.80;3.20;;;;;;;;;;5069369;28;20040;-75
2021/12/19 13:05:13;;;;;;;12.47;3.60;;;;;;;;;;5068987;28;20396;-75
2021/12/19 13:07:39;;;;;;;12.35;3.50;;;;;;;;;;5052844;28;20052;-75
2021/12/19 13:10:06;;;;;;;15.68;3.65;;;;;;;;;;5069454;28;20410;-75
2021/12/19 13:12:33;;;;;;;15.65;2.60;;;;;;;;;;5069256;28;20045;-74
2021/12/19 13:15:01;;;;;;;17.45;3.10;;;;;;;;;;5069211;28;20461;-75
2021/12/19 13:17:30;;;;;;;17.40;3.42;;;;;;;;;;5068474;28;20472;-75
2021/12/19 13:20:27;;;;;;;14.45;2.97;;;;;;;;;;5068743;28;20055;-75
2021/12/19 13:22:53;;;;;;;19.27;2.80;;;;;;;;;;5061087;28;20582;-75
2021/12/19 13:25:19;;;;;;;16.65;3.30;;;;;;;;;;5069002;28;20482;-75
2021/12/19 13:27:46;;;;;;;18.25;2.80;;;;;;;;;;5069090;28;20048;-75
2021/12/19 13:30:15;;;;;;;15.85;3.13;;;;;;;;;;5068573;28;20094;-75
2021/12/19 13:32:44;;;;;;;15.63;3.00;;;;;;;;;;5069001;28;20101;-75
2021/12/19 13:35:20;;;;;;;14.57;3.40;;;;;;;;;;5069848;28;20045;-75
2021/12/19 13:37:48;;;;;;;15.38;3.72;;;;;;;;;;5068883;28;20067;-75
2021/12/19 13:40:14;;;;;;;15.70;4.20;;;;;;;;;;5051676;28;20033;-75
2021/12/19 13:42:48;;;;;;;15.85;3.15;;;;;;;;;;5052169;28;20056;-75
2021/12/19 13:45:28;;;;;;;9.70;2.58;;;;;;;;;;5068886;28;20459;-75
2021/12/19 13:47:55;;;;;;;14.13;3.05;;;;;;;;;;5068455;28;20373;-75
2021/12/19 13:50:22;;;;;;;15.05;2.53;;;;;;;;;;5067964;28;20067;-75
2021/12/19 13:52:48;;;;;;;20.92;3.72;;;;;;;;;;5051838;28;20033;-75
2021/12/19 13:55:15;;;;;;;14.18;2.88;;;;;;;;;;5068122;28;20080;-75
2021/12/19 13:57:42;;;;;;;15.68;2.40;;;;;;;;;;5069692;28;20044;-75
2021/12/19 14:00:10;;;;;;;13.50;2.85;;;;;;;;;;5069583;28;20040;-75
2021/12/19 14:02:37;;;;;;;17.85;2.88;;;;;;;;;;5068560;28;20044;-75
2021/12/19 14:05:04;;;;;;;23.38;3.33;;;;;;;;;;5069783;28;20526;-75
2021/12/19 14:07:30;;;;;;;15.32;2.80;;;;;;;;;;5068508;28;20381;-82
2021/12/19 14:10:02;;;;;;;20.55;3.40;;;;;;;;;;5068550;28;20055;-75
2021/12/19 14:12:51;;;;;;;19.55;3.45;;;;;;;;;;5067658;28;20047;-75
2021/12/19 14:15:17;;;;;;;8.07;2.40;;;;;;;;;;5068661;28;20055;-82
2021/12/19 14:17:43;;;;;;;21.48;2.75;;;;;;;;;;5051491;28;20047;-75
2021/12/19 14:20:10;;;;;;;16.80;2.95;;;;;;;;;;5067807;28;20040;-75
2021/12/19 14:22:36;;;;;;;13.85;2.80;;;;;;;;;;5068654;28;20044;-75
2021/12/19 14:25:03;;;;;;;14.50;3.00;;;;;;;;;;5068419;28;20484;-75
2021/12/19 14:27:29;;;;;;;20.23;2.70;;;;;;;;;;5068015;28;20049;-75
2021/12/19 14:29:55;;;;;;;18.95;3.45;;;;;;;;;;5068166;28;20055;-75
2021/12/19 14:32:24;;;;;;;20.40;3.47;;;;;;;;;;5069051;28;20090;-75
2021/12/19 14:34:58;;;;;;;23.73;2.88;;;;;;;;;;5068402;28;20036;-75
2021/12/19 14:37:31;;;;;;;13.88;3.25;;;;;;;;;;5067819;28;20098;-75
2021/12/19 14:40:10;;;;;;;17.80;3.20;;;;;;;;;;5069526;28;20079;-75
2021/12/19 14:42:38;;;;;;;16.77;2.55;;;;;;;;;;5068107;28;20051;-75
2021/12/19 14:45:09;;;;;;;19.63;3.22;;;;;;;;;;5067914;28;20123;-74
2021/12/19 14:47:36;;;;;;;22.05;3.25;;;;;;;;;;5068479;28;20044;-82
2021/12/19 14:50:11;;;;;;;16.98;2.75;;;;;;;;;;5051719;28;20488;-83
2021/12/19 14:52:37;;;;;;;16.48;2.63;;;;;;;;;;5068776;28;20485;-82
2021/12/19 14:55:11;;;;;;;13.50;3.47;;;;;;;;;;5068181;28;20053;-75
2021/12/19 14:57:37;;;;;;;12.02;2.78;;;;;;;;;;5069177;28;20140;-83
2021/12/19 15:00:04;;;;;;;19.75;2.90;;;;;;;;;;5051819;28;20040;-83
2021/12/19 15:02:31;;;;;;;16.38;2.63;;;;;;;;;;5068478;28;20087;-82
2021/12/19 15:04:57;;;;;;;10.35;2.15;;;;;;;;;;5052203;28;20516;-82
2021/12/19 15:07:25;;;;;;;12.85;2.70;;;;;;;;;;5068121;28;20087;-82
2021/12/19 15:09:51;;;;;;;10.10;3.65;;;;;;;;;;5069547;28;20399;-75
2021/12/19 15:12:17;;;;;;;9.88;2.70;;;;;;;;;;5067320;28;20043;-75
2021/12/19 15:14:44;;;;;;;13.00;3.30;;;;;;;;;;5068096;28;20082;-75
2021/12/19 15:17:10;;;;;;;11.77;3.63;;;;;;;;;;5067444;28;20078;-75
2021/12/19 15:19:36;;;;;;;12.30;3.10;;;;;;;;;;5068710;28;20125;-83
2021/12/19 15:22:02;;;;;;;12.05;3.22;;;;;;;;;;5068013;28;20075;-83
2021/12/19 15:24:28;;;;;;;11.10;3.22;;;;;;;;;;5105808;28;20422;-83
2021/12/19 15:26:54;;;;;;;8.73;2.25;;;;;;;;;;5071620;28;20043;-82
2021/12/19 15:29:20;;;;;;;7.95;2.08;;;;;;;;;;5071462;28;20042;-83
2021/12/19 15:31:50;;;;;;;13.00;2.45;;;;;;;;;;5072981;28;20566;-81
2021/12/19 15:34:16;;;;;;;14.93;2.00;;;;;;;;;;5071428;28;20052;-82
2021/12/19 15:36:42;;;;;;;11.85;2.00;;;;;;;;;;5071602;28;20040;-83
2021/12/19 15:39:09;;;;;;;11.18;2.17;;;;;;;;;;5071309;28;20033;-83
2021/12/19 15:41:35;;;;;;;9.32;1.92;;;;;;;;;;5071701;28;20492;-83
2021/12/19 15:44:02;;;;;;;8.95;1.60;;;;;;;;;;5054837;28;20123;-83
2021/12/19 15:46:28;;;;;;;12.70;1.98;;;;;;;;;;5071028;28;20084;-83
2021/12/19 15:48:56;;;;;;;13.95;2.58;;;;;;;;;;5071126;28;20090;-75